sensor_id;sensor_type;location;lat;lon;timestamp;temperature;humidity
54168;DHT22;68429;50.958;3.592;2024-03-02T00:01:10;6.20;99.90
54168;DHT22;68429;50.958;3.592;2024-03-02T00:03:37;6.30;99.90
54168;DHT22;68429;50.958;3.592;2024-03-02T00:06:04;6.40;99.90
54168;DHT22;68429;50.958;3.592;2024-03-02T00:08:30;6.20;99.90
54168;DHT22;68429;50.958;3.592;2024-03-02T00:11:00;6.10;99.90
54168;DHT22;68429;50.958;3.592;2024-03-02T00:13:26;6.10;99.90
54168;DHT22;68429;50.958;3.592;2024-03-02T00:15:54;6.20;99.90
54168;DHT22;68429;50.958;3.592;2024-03-02T00:20:53;6.20;99.90
54168;DHT22;68429;50.958;3.592;2024-03-02T00:23:20;6.20;99.90
54168;DHT22;68429;50.958;3.592;2024-03-02T00:25:48;6.00;99.90
54168;DHT22;68429;50.958;3.592;2024-03-02T00:28:21;6.00;99.90
54168;DHT22;68429;50.958;3.592;2024-03-02T00:31:05;5.90;99.90
54168;DHT22;68429;50.958;3.592;2024-03-02T00:33:33;5.90;99.90
54168;DHT22;68429;50.958;3.592;2024-03-02T00:36:00;5.90;99.90
54168;DHT22;68429;50.958;3.592;2024-03-02T00:38:27;5.90;99.90
54168;DHT22;68429;50.958;3.592;2024-03-02T00:40:54;5.90;99.90
54168;DHT22;68429;50.958;3.592;2024-03-02T00:45:54;6.00;99.90
54168;DHT22;68429;50.958;3.592;2024-03-02T00:48:20;5.90;99.90
54168;DHT22;68429;50.958;3.592;2024-03-02T00:50:46;5.90;99.90
54168;DHT22;68429;50.958;3.592;2024-03-02T00:53:16;5.90;99.90
54168;DHT22;68429;50.958;3.592;2024-03-02T00:55:42;5.90;99.90
54168;DHT22;68429;50.958;3.592;2024-03-02T00:58:12;5.90;99.90
54168;DHT22;68429;50.958;3.592;2024-03-02T01:00:38;5.90;99.90
54168;DHT22;68429;50.958;3.592;2024-03-02T01:03:04;5.90;99.90
54168;DHT22;68429;50.958;3.592;2024-03-02T01:05:29;6.00;99.90
54168;DHT22;68429;50.958;3.592;2024-03-02T01:07:55;6.00;99.90
54168;DHT22;68429;50.958;3.592;2024-03-02T01:10:21;6.00;99.90
54168;DHT22;68429;50.958;3.592;2024-03-02T01:12:46;5.90;99.90
54168;DHT22;68429;50.958;3.592;2024-03-02T01:15:12;5.90;99.90
54168;DHT22;68429;50.958;3.592;2024-03-02T01:17:38;6.00;99.90
54168;DHT22;68429;50.958;3.592;2024-03-02T01:20:04;6.00;99.90
54168;DHT22;68429;50.958;3.592;2024-03-02T01:22:29;6.00;99.90
54168;DHT22;68429;50.958;3.592;2024-03-02T01:24:55;6.00;99.90
54168;DHT22;68429;50.958;3.592;2024-03-02T01:27:21;6.00;99.90
54168;DHT22;68429;50.958;3.592;2024-03-02T01:29:46;6.00;99.90
54168;DHT22;68429;50.958;3.592;2024-03-02T01:32:12;5.90;99.90
54168;DHT22;68429;50.958;3.592;2024-03-02T01:34:38;5.90;99.90
54168;DHT22;68429;50.958;3.592;2024-03-02T01:37:03;5.90;99.90
54168;DHT22;68429;50.958;3.592;2024-03-02T01:39:29;5.80;99.90
54168;DHT22;68429;50.958;3.592;2024-03-02T01:41:54;5.90;99.90
54168;DHT22;68429;50.958;3.592;2024-03-02T01:44:20;5.90;99.90
54168;DHT22;68429;50.958;3.592;2024-03-02T01:46:46;5.90;99.90
54168;DHT22;68429;50.958;3.592;2024-03-02T01:49:11;5.90;99.90
54168;DHT22;68429;50.958;3.592;2024-03-02T01:51:37;5.90;99.90
54168;DHT22;68429;50.958;3.592;2024-03-02T01:54:03;5.90;99.90
54168;DHT22;68429;50.958;3.592;2024-03-02T01:56:28;6.00;99.90
54168;DHT22;68429;50.958;3.592;2024-03-02T01:58:54;6.00;99.90
54168;DHT22;68429;50.958;3.592;2024-03-02T02:01:20;5.90;99.90
54168;DHT22;68429;50.958;3.592;2024-03-02T02:03:45;5.70;99.90
54168;DHT22;68429;50.958;3.592;2024-03-02T02:06:11;5.70;99.90
54168;DHT22;68429;50.958;3.592;2024-03-02T02:08:37;5.70;99.90
54168;DHT22;68429;50.958;3.592;2024-03-02T02:11:03;5.70;99.90
54168;DHT22;68429;50.958;3.592;2024-03-02T02:13:29;5.80;99.90
54168;DHT22;68429;50.958;3.592;2024-03-02T02:15:54;5.80;99.90
54168;DHT22;68429;50.958;3.592;2024-03-02T02:18:20;5.70;99.90
54168;DHT22;68429;50.958;3.592;2024-03-02T02:20:46;5.80;99.90
54168;DHT22;68429;50.958;3.592;2024-03-02T02:23:11;5.80;99.90
54168;DHT22;68429;50.958;3.592;2024-03-02T02:25:38;5.80;99.90
54168;DHT22;68429;50.958;3.592;2024-03-02T02:28:04;5.70;99.90
54168;DHT22;68429;50.958;3.592;2024-03-02T02:30:31;5.70;99.90
54168;DHT22;68429;50.958;3.592;2024-03-02T02:32:59;5.80;99.90
54168;DHT22;68429;50.958;3.592;2024-03-02T02:35:26;5.90;99.90
54168;DHT22;68429;50.958;3.592;2024-03-02T02:37:53;5.90;99.90
54168;DHT22;68429;50.958;3.592;2024-03-02T02:40:19;6.00;99.90
54168;DHT22;68429;50.958;3.592;2024-03-02T02:42:47;6.00;99.90
54168;DHT22;68429;50.958;3.592;2024-03-02T02:45:13;6.00;99.90
54168;DHT22;68429;50.958;3.592;2024-03-02T02:47:42;6.00;99.90
54168;DHT22;68429;50.958;3.592;2024-03-02T02:50:09;6.10;99.90
54168;DHT22;68429;50.958;3.592;2024-03-02T02:52:36;6.30;99.90
54168;DHT22;68429;50.958;3.592;2024-03-02T02:55:06;6.30;99.90
54168;DHT22;68429;50.958;3.592;2024-03-02T02:57:33;6.20;99.90
54168;DHT22;68429;50.958;3.592;2024-03-02T03:00:09;6.20;99.90
54168;DHT22;68429;50.958;3.592;2024-03-02T03:02:42;6.20;99.90
54168;DHT22;68429;50.958;3.592;2024-03-02T03:05:12;6.20;99.90
54168;DHT22;68429;50.958;3.592;2024-03-02T03:07:39;6.10;99.90
54168;DHT22;68429;50.958;3.592;2024-03-02T03:10:06;6.20;99.90
54168;DHT22;68429;50.958;3.592;2024-03-02T03:12:33;6.10;99.90
54168;DHT22;68429;50.958;3.592;2024-03-02T03:14:59;6.10;99.90
54168;DHT22;68429;50.958;3.592;2024-03-02T03:17:25;6.10;99.90
54168;DHT22;68429;50.958;3.592;2024-03-02T03:19:51;6.00;99.90
54168;DHT22;68429;50.958;3.592;2024-03-02T03:22:17;6.00;99.90
54168;DHT22;68429;50.958;3.592;2024-03-02T03:24:43;5.90;99.90
54168;DHT22;68429;50.958;3.592;2024-03-02T03:27:09;6.00;99.90
54168;DHT22;68429;50.958;3.592;2024-03-02T03:29:36;6.00;99.90
54168;DHT22;68429;50.958;3.592;2024-03-02T03:32:02;6.00;99.90
54168;DHT22;68429;50.958;3.592;2024-03-02T03:34:27;6.00;99.90
54168;DHT22;68429;50.958;3.592;2024-03-02T03:36:54;5.90;99.90
54168;DHT22;68429;50.958;3.592;2024-03-02T03:39:20;6.00;99.90
54168;DHT22;68429;50.958;3.592;2024-03-02T03:41:46;5.90;99.90
54168;DHT22;68429;50.958;3.592;2024-03-02T03:44:12;5.90;99.90
54168;DHT22;68429;50.958;3.592;2024-03-02T03:46:37;5.90;99.90
54168;DHT22;68429;50.958;3.592;2024-03-02T03:49:03;5.90;99.90
54168;DHT22;68429;50.958;3.592;2024-03-02T03:51:29;5.90;99.90
54168;DHT22;68429;50.958;3.592;2024-03-02T03:53:58;5.90;99.90
54168;DHT22;68429;50.958;3.592;2024-03-02T03:56:24;5.90;99.90
54168;DHT22;68429;50.958;3.592;2024-03-02T03:58:50;5.80;99.90
54168;DHT22;68429;50.958;3.592;2024-03-02T04:01:18;5.80;99.90
54168;DHT22;68429;50.958;3.592;2024-03-02T04:03:44;5.80;99.90
54168;DHT22;68429;50.958;3.592;2024-03-02T04:06:10;5.80;99.90
54168;DHT22;68429;50.958;3.592;2024-03-02T04:08:36;5.70;99.90
54168;DHT22;68429;50.958;3.592;2024-03-02T04:11:01;5.70;99.90
54168;DHT22;68429;50.958;3.592;2024-03-02T04:13:28;5.70;99.90
54168;DHT22;68429;50.958;3.592;2024-03-02T04:15:55;5.60;99.90
54168;DHT22;68429;50.958;3.592;2024-03-02T04:18:20;5.60;99.90
54168;DHT22;68429;50.958;3.592;2024-03-02T04:20:46;5.50;99.90
54168;DHT22;68429;50.958;3.592;2024-03-02T04:23:11;5.50;99.90
54168;DHT22;68429;50.958;3.592;2024-03-02T04:25:37;5.60;99.90
54168;DHT22;68429;50.958;3.592;2024-03-02T04:28:03;5.70;99.90
54168;DHT22;68429;50.958;3.592;2024-03-02T04:30:28;5.60;99.90
54168;DHT22;68429;50.958;3.592;2024-03-02T04:32:54;5.60;99.90
54168;DHT22;68429;50.958;3.592;2024-03-02T04:35:20;5.60;99.90
54168;DHT22;68429;50.958;3.592;2024-03-02T04:37:46;5.80;99.90
54168;DHT22;68429;50.958;3.592;2024-03-02T04:40:12;5.70;99.90
54168;DHT22;68429;50.958;3.592;2024-03-02T04:42:38;5.70;99.90
54168;DHT22;68429;50.958;3.592;2024-03-02T04:45:03;5.60;99.90
54168;DHT22;68429;50.958;3.592;2024-03-02T04:47:29;5.60;99.90
54168;DHT22;68429;50.958;3.592;2024-03-02T04:49:55;5.70;99.90
54168;DHT22;68429;50.958;3.592;2024-03-02T04:52:21;5.80;99.90
54168;DHT22;68429;50.958;3.592;2024-03-02T04:54:46;5.70;99.90
54168;DHT22;68429;50.958;3.592;2024-03-02T04:57:31;5.70;99.90
54168;DHT22;68429;50.958;3.592;2024-03-02T04:59:56;5.60;99.90
54168;DHT22;68429;50.958;3.592;2024-03-02T05:02:22;5.50;99.90
54168;DHT22;68429;50.958;3.592;2024-03-02T05:04:47;5.50;99.90
54168;DHT22;68429;50.958;3.592;2024-03-02T05:07:14;5.60;99.90
54168;DHT22;68429;50.958;3.592;2024-03-02T05:09:40;5.70;99.90
54168;DHT22;68429;50.958;3.592;2024-03-02T05:12:06;5.70;99.90
54168;DHT22;68429;50.958;3.592;2024-03-02T05:14:50;5.70;99.90
54168;DHT22;68429;50.958;3.592;2024-03-02T05:17:15;5.70;99.90
54168;DHT22;68429;50.958;3.592;2024-03-02T05:19:41;5.80;99.90
54168;DHT22;68429;50.958;3.592;2024-03-02T05:22:06;5.70;99.90
54168;DHT22;68429;50.958;3.592;2024-03-02T05:24:32;5.70;99.90
54168;DHT22;68429;50.958;3.592;2024-03-02T05:26:58;5.70;99.90
54168;DHT22;68429;50.958;3.592;2024-03-02T05:29:23;5.60;99.90
54168;DHT22;68429;50.958;3.592;2024-03-02T05:31:49;5.60;99.90
54168;DHT22;68429;50.958;3.592;2024-03-02T05:34:14;5.70;99.90
54168;DHT22;68429;50.958;3.592;2024-03-02T05:36:40;5.80;99.90
54168;DHT22;68429;50.958;3.592;2024-03-02T05:39:06;5.70;99.90
54168;DHT22;68429;50.958;3.592;2024-03-02T05:41:35;5.70;99.90
54168;DHT22;68429;50.958;3.592;2024-03-02T05:44:01;5.70;99.90
54168;DHT22;68429;50.958;3.592;2024-03-02T05:46:27;5.70;99.90
54168;DHT22;68429;50.958;3.592;2024-03-02T05:48:53;5.60;99.90
54168;DHT22;68429;50.958;3.592;2024-03-02T05:51:19;5.70;99.90
54168;DHT22;68429;50.958;3.592;2024-03-02T05:53:44;5.60;99.90
54168;DHT22;68429;50.958;3.592;2024-03-02T05:56:10;5.70;99.90
54168;DHT22;68429;50.958;3.592;2024-03-02T05:58:37;5.60;99.90
54168;DHT22;68429;50.958;3.592;2024-03-02T06:01:21;5.60;99.90
54168;DHT22;68429;50.958;3.592;2024-03-02T06:03:56;5.60;99.90
54168;DHT22;68429;50.958;3.592;2024-03-02T06:06:22;5.70;99.90
54168;DHT22;68429;50.958;3.592;2024-03-02T06:08:48;5.70;99.90
54168;DHT22;68429;50.958;3.592;2024-03-02T06:11:14;5.80;99.90
54168;DHT22;68429;50.958;3.592;2024-03-02T06:13:39;5.70;99.90
54168;DHT22;68429;50.958;3.592;2024-03-02T06:16:05;5.60;99.90
54168;DHT22;68429;50.958;3.592;2024-03-02T06:18:31;5.70;99.90
54168;DHT22;68429;50.958;3.592;2024-03-02T06:20:57;5.70;99.90
54168;DHT22;68429;50.958;3.592;2024-03-02T06:23:23;5.70;99.90
54168;DHT22;68429;50.958;3.592;2024-03-02T06:25:48;5.70;99.90
54168;DHT22;68429;50.958;3.592;2024-03-02T06:28:14;5.70;99.90
54168;DHT22;68429;50.958;3.592;2024-03-02T06:30:42;5.60;99.90
54168;DHT22;68429;50.958;3.592;2024-03-02T06:33:11;5.60;99.90
54168;DHT22;68429;50.958;3.592;2024-03-02T06:35:37;5.70;99.90
54168;DHT22;68429;50.958;3.592;2024-03-02T06:38:03;5.70;99.90
54168;DHT22;68429;50.958;3.592;2024-03-02T06:40:29;5.80;99.90
54168;DHT22;68429;50.958;3.592;2024-03-02T06:42:54;5.70;99.90
54168;DHT22;68429;50.958;3.592;2024-03-02T06:45:20;5.70;99.90
54168;DHT22;68429;50.958;3.592;2024-03-02T06:47:46;5.70;99.90
54168;DHT22;68429;50.958;3.592;2024-03-02T06:50:11;5.70;99.90
54168;DHT22;68429;50.958;3.592;2024-03-02T06:52:37;5.70;99.90
54168;DHT22;68429;50.958;3.592;2024-03-02T06:55:03;5.70;99.90
54168;DHT22;68429;50.958;3.592;2024-03-02T06:57:30;5.80;99.90
54168;DHT22;68429;50.958;3.592;2024-03-02T06:59:55;5.90;99.90
54168;DHT22;68429;50.958;3.592;2024-03-02T07:02:24;5.80;99.90
54168;DHT22;68429;50.958;3.592;2024-03-02T07:04:55;5.90;99.90
54168;DHT22;68429;50.958;3.592;2024-03-02T07:07:20;5.90;99.90
54168;DHT22;68429;50.958;3.592;2024-03-02T07:09:46;6.00;99.90
54168;DHT22;68429;50.958;3.592;2024-03-02T07:12:13;6.00;99.90
54168;DHT22;68429;50.958;3.592;2024-03-02T07:14:39;6.00;99.90
54168;DHT22;68429;50.958;3.592;2024-03-02T07:17:23;6.20;99.90
54168;DHT22;68429;50.958;3.592;2024-03-02T07:19:49;6.40;99.90
54168;DHT22;68429;50.958;3.592;2024-03-02T07:22:14;6.50;99.90
54168;DHT22;68429;50.958;3.592;2024-03-02T07:24:44;6.50;99.90
54168;DHT22;68429;50.958;3.592;2024-03-02T07:27:11;6.60;99.90
54168;DHT22;68429;50.958;3.592;2024-03-02T07:29:38;6.60;99.90
54168;DHT22;68429;50.958;3.592;2024-03-02T07:32:07;6.80;99.90
54168;DHT22;68429;50.958;3.592;2024-03-02T07:34:33;7.00;99.90
54168;DHT22;68429;50.958;3.592;2024-03-02T07:36:59;7.10;99.90
54168;DHT22;68429;50.958;3.592;2024-03-02T07:39:25;7.10;99.90
54168;DHT22;68429;50.958;3.592;2024-03-02T07:41:51;7.10;99.90
54168;DHT22;68429;50.958;3.592;2024-03-02T07:44:17;7.20;99.90
54168;DHT22;68429;50.958;3.592;2024-03-02T07:46:45;7.50;99.90
54168;DHT22;68429;50.958;3.592;2024-03-02T07:49:20;7.80;99.90
54168;DHT22;68429;50.958;3.592;2024-03-02T07:51:46;8.40;99.90
54168;DHT22;68429;50.958;3.592;2024-03-02T07:54:12;8.80;99.90
54168;DHT22;68429;50.958;3.592;2024-03-02T07:56:38;8.80;99.90
54168;DHT22;68429;50.958;3.592;2024-03-02T07:59:04;8.60;99.90
54168;DHT22;68429;50.958;3.592;2024-03-02T08:01:31;8.40;99.90
54168;DHT22;68429;50.958;3.592;2024-03-02T08:03:58;8.30;99.90
54168;DHT22;68429;50.958;3.592;2024-03-02T08:06:27;8.40;99.90
54168;DHT22;68429;50.958;3.592;2024-03-02T08:08:53;8.50;99.90
54168;DHT22;68429;50.958;3.592;2024-03-02T08:11:20;8.50;99.90
54168;DHT22;68429;50.958;3.592;2024-03-02T08:13:46;8.90;99.90
54168;DHT22;68429;50.958;3.592;2024-03-02T08:16:11;9.20;99.90
54168;DHT22;68429;50.958;3.592;2024-03-02T08:18:40;9.30;99.90
54168;DHT22;68429;50.958;3.592;2024-03-02T08:21:11;9.00;99.90
54168;DHT22;68429;50.958;3.592;2024-03-02T08:23:37;8.90;99.90
54168;DHT22;68429;50.958;3.592;2024-03-02T08:26:03;9.00;99.90
54168;DHT22;68429;50.958;3.592;2024-03-02T08:28:29;9.30;99.90
54168;DHT22;68429;50.958;3.592;2024-03-02T08:30:55;9.50;99.90
54168;DHT22;68429;50.958;3.592;2024-03-02T08:33:22;9.50;99.90
54168;DHT22;68429;50.958;3.592;2024-03-02T08:35:49;9.70;99.90
54168;DHT22;68429;50.958;3.592;2024-03-02T08:38:15;9.50;99.90
54168;DHT22;68429;50.958;3.592;2024-03-02T08:40:44;9.40;99.90
54168;DHT22;68429;50.958;3.592;2024-03-02T08:43:10;9.50;99.90
54168;DHT22;68429;50.958;3.592;2024-03-02T08:45:36;9.60;99.90
54168;DHT22;68429;50.958;3.592;2024-03-02T08:48:01;9.60;99.90
54168;DHT22;68429;50.958;3.592;2024-03-02T08:50:27;9.50;99.90
54168;DHT22;68429;50.958;3.592;2024-03-02T08:52:53;9.40;99.90
54168;DHT22;68429;50.958;3.592;2024-03-02T08:55:18;9.40;99.90
54168;DHT22;68429;50.958;3.592;2024-03-02T08:57:44;9.20;99.90
54168;DHT22;68429;50.958;3.592;2024-03-02T09:00:10;9.20;99.90
54168;DHT22;68429;50.958;3.592;2024-03-02T09:02:36;9.20;99.90
54168;DHT22;68429;50.958;3.592;2024-03-02T09:05:02;9.40;99.90
54168;DHT22;68429;50.958;3.592;2024-03-02T09:07:28;9.70;99.90
54168;DHT22;68429;50.958;3.592;2024-03-02T09:09:54;9.70;99.90
54168;DHT22;68429;50.958;3.592;2024-03-02T09:12:19;10.10;99.90
54168;DHT22;68429;50.958;3.592;2024-03-02T09:14:45;10.60;99.90
54168;DHT22;68429;50.958;3.592;2024-03-02T09:17:12;10.70;99.90
54168;DHT22;68429;50.958;3.592;2024-03-02T09:19:39;10.60;99.90
54168;DHT22;68429;50.958;3.592;2024-03-02T09:22:04;10.40;99.90
54168;DHT22;68429;50.958;3.592;2024-03-02T09:24:31;10.20;99.90
54168;DHT22;68429;50.958;3.592;2024-03-02T09:26:58;10.20;99.90
54168;DHT22;68429;50.958;3.592;2024-03-02T09:29:24;10.20;99.90
54168;DHT22;68429;50.958;3.592;2024-03-02T09:31:50;10.50;99.90
54168;DHT22;68429;50.958;3.592;2024-03-02T09:34:16;11.40;99.90
54168;DHT22;68429;50.958;3.592;2024-03-02T09:36:42;12.30;99.90
54168;DHT22;68429;50.958;3.592;2024-03-02T09:39:08;13.20;99.90
54168;DHT22;68429;50.958;3.592;2024-03-02T09:41:38;13.70;99.90
54168;DHT22;68429;50.958;3.592;2024-03-02T09:44:05;14.20;99.90
54168;DHT22;68429;50.958;3.592;2024-03-02T09:46:31;14.80;99.90
54168;DHT22;68429;50.958;3.592;2024-03-02T09:48:57;15.00;99.90
54168;DHT22;68429;50.958;3.592;2024-03-02T09:51:23;14.80;99.90
54168;DHT22;68429;50.958;3.592;2024-03-02T09:53:50;15.40;99.90
54168;DHT22;68429;50.958;3.592;2024-03-02T09:56:16;15.20;99.90
54168;DHT22;68429;50.958;3.592;2024-03-02T09:58:41;14.40;99.90
54168;DHT22;68429;50.958;3.592;2024-03-02T10:01:08;14.10;99.90
54168;DHT22;68429;50.958;3.592;2024-03-02T10:03:36;13.70;99.90
54168;DHT22;68429;50.958;3.592;2024-03-02T10:06:24;13.30;99.90
54168;DHT22;68429;50.958;3.592;2024-03-02T10:08:51;13.10;99.90
54168;DHT22;68429;50.958;3.592;2024-03-02T10:16:40;12.80;99.90
54168;DHT22;68429;50.958;3.592;2024-03-02T10:19:23;13.40;99.90
54168;DHT22;68429;50.958;3.592;2024-03-02T10:21:50;14.30;99.90
54168;DHT22;68429;50.958;3.592;2024-03-02T10:24:17;14.10;99.90
54168;DHT22;68429;50.958;3.592;2024-03-02T10:26:42;13.50;99.90
54168;DHT22;68429;50.958;3.592;2024-03-02T10:29:11;12.60;99.90
54168;DHT22;68429;50.958;3.592;2024-03-02T10:31:38;12.00;99.90
54168;DHT22;68429;50.958;3.592;2024-03-02T10:34:05;11.50;99.90
54168;DHT22;68429;50.958;3.592;2024-03-02T10:36:30;11.30;99.90
54168;DHT22;68429;50.958;3.592;2024-03-02T10:38:57;11.10;99.90
54168;DHT22;68429;50.958;3.592;2024-03-02T10:41:26;10.90;99.90
54168;DHT22;68429;50.958;3.592;2024-03-02T10:43:56;10.80;99.90
54168;DHT22;68429;50.958;3.592;2024-03-02T10:46:30;10.90;99.90
54168;DHT22;68429;50.958;3.592;2024-03-02T10:48:57;11.10;99.90
54168;DHT22;68429;50.958;3.592;2024-03-02T10:51:28;11.30;99.90
54168;DHT22;68429;50.958;3.592;2024-03-02T10:53:57;11.50;99.90
54168;DHT22;68429;50.958;3.592;2024-03-02T10:56:53;11.50;99.90
54168;DHT22;68429;50.958;3.592;2024-03-02T11:01:59;12.10;99.90
54168;DHT22;68429;50.958;3.592;2024-03-02T11:04:26;12.30;99.90
54168;DHT22;68429;50.958;3.592;2024-03-02T11:07:07;12.40;99.90
54168;DHT22;68429;50.958;3.592;2024-03-02T11:09:38;12.30;99.90
54168;DHT22;68429;50.958;3.592;2024-03-02T11:12:36;11.90;99.90
54168;DHT22;68429;50.958;3.592;2024-03-02T11:15:04;11.90;99.90
54168;DHT22;68429;50.958;3.592;2024-03-02T11:17:35;11.80;99.90
54168;DHT22;68429;50.958;3.592;2024-03-02T11:20:03;11.90;99.90
54168;DHT22;68429;50.958;3.592;2024-03-02T11:22:29;12.00;99.90
54168;DHT22;68429;50.958;3.592;2024-03-02T11:24:55;11.90;99.90
54168;DHT22;68429;50.958;3.592;2024-03-02T11:33:03;11.90;99.90
54168;DHT22;68429;50.958;3.592;2024-03-02T11:35:36;12.10;99.90
54168;DHT22;68429;50.958;3.592;2024-03-02T11:38:03;12.30;99.90
54168;DHT22;68429;50.958;3.592;2024-03-02T11:40:29;12.30;99.90
54168;DHT22;68429;50.958;3.592;2024-03-02T11:42:56;12.40;99.90
54168;DHT22;68429;50.958;3.592;2024-03-02T11:45:28;12.30;99.90
54168;DHT22;68429;50.958;3.592;2024-03-02T11:47:57;12.10;99.90
54168;DHT22;68429;50.958;3.592;2024-03-02T11:52:58;11.80;99.90
54168;DHT22;68429;50.958;3.592;2024-03-02T11:55:25;11.60;99.90
54168;DHT22;68429;50.958;3.592;2024-03-02T11:57:55;11.40;99.90
54168;DHT22;68429;50.958;3.592;2024-03-02T12:00:21;11.40;99.90
54168;DHT22;68429;50.958;3.592;2024-03-02T12:02:59;11.40;99.90
54168;DHT22;68429;50.958;3.592;2024-03-02T12:05:25;11.30;99.90
54168;DHT22;68429;50.958;3.592;2024-03-02T12:07:56;11.20;99.90
54168;DHT22;68429;50.958;3.592;2024-03-02T12:10:22;11.10;99.90
54168;DHT22;68429;50.958;3.592;2024-03-02T12:12:52;11.10;99.90
54168;DHT22;68429;50.958;3.592;2024-03-02T12:15:24;11.00;99.90
54168;DHT22;68429;50.958;3.592;2024-03-02T12:17:55;10.80;99.90
54168;DHT22;68429;50.958;3.592;2024-03-02T12:20:23;10.80;99.90
54168;DHT22;68429;50.958;3.592;2024-03-02T12:22:53;10.80;99.90
54168;DHT22;68429;50.958;3.592;2024-03-02T12:25:20;10.70;99.90
54168;DHT22;68429;50.958;3.592;2024-03-02T12:27:47;10.50;99.90
54168;DHT22;68429;50.958;3.592;2024-03-02T12:30:16;10.50;99.90
54168;DHT22;68429;50.958;3.592;2024-03-02T12:32:41;10.40;99.90
54168;DHT22;68429;50.958;3.592;2024-03-02T12:35:07;10.40;99.90
54168;DHT22;68429;50.958;3.592;2024-03-02T12:37:41;10.30;99.90
54168;DHT22;68429;50.958;3.592;2024-03-02T12:40:10;10.30;99.90
54168;DHT22;68429;50.958;3.592;2024-03-02T12:42:36;10.30;99.90
54168;DHT22;68429;50.958;3.592;2024-03-02T12:45:02;10.40;99.90
54168;DHT22;68429;50.958;3.592;2024-03-02T12:47:29;10.40;99.90
54168;DHT22;68429;50.958;3.592;2024-03-02T12:49:55;10.40;99.90
54168;DHT22;68429;50.958;3.592;2024-03-02T12:52:21;10.30;99.90
54168;DHT22;68429;50.958;3.592;2024-03-02T12:54:48;10.20;99.90
54168;DHT22;68429;50.958;3.592;2024-03-02T12:57:17;10.20;99.90
54168;DHT22;68429;50.958;3.592;2024-03-02T12:59:45;10.20;99.90
54168;DHT22;68429;50.958;3.592;2024-03-02T13:02:19;10.10;99.90
54168;DHT22;68429;50.958;3.592;2024-03-02T13:04:52;10.20;99.90
54168;DHT22;68429;50.958;3.592;2024-03-02T13:07:19;10.20;99.90
54168;DHT22;68429;50.958;3.592;2024-03-02T13:09:45;10.10;99.90
54168;DHT22;68429;50.958;3.592;2024-03-02T13:12:11;10.00;99.90
54168;DHT22;68429;50.958;3.592;2024-03-02T13:14:37;10.00;99.90
54168;DHT22;68429;50.958;3.592;2024-03-02T13:17:03;10.10;99.90
54168;DHT22;68429;50.958;3.592;2024-03-02T13:19:30;10.10;99.90
54168;DHT22;68429;50.958;3.592;2024-03-02T13:21:57;10.00;99.90
54168;DHT22;68429;50.958;3.592;2024-03-02T13:24:23;10.00;99.90
54168;DHT22;68429;50.958;3.592;2024-03-02T13:26:54;10.00;99.90
54168;DHT22;68429;50.958;3.592;2024-03-02T13:29:22;10.20;99.90
54168;DHT22;68429;50.958;3.592;2024-03-02T13:31:48;10.10;99.90
54168;DHT22;68429;50.958;3.592;2024-03-02T13:34:14;10.10;99.90
54168;DHT22;68429;50.958;3.592;2024-03-02T13:36:39;10.10;99.90
54168;DHT22;68429;50.958;3.592;2024-03-02T13:39:05;10.10;99.90
54168;DHT22;68429;50.958;3.592;2024-03-02T13:41:34;10.30;99.90
54168;DHT22;68429;50.958;3.592;2024-03-02T13:44:00;10.80;99.90
54168;DHT22;68429;50.958;3.592;2024-03-02T13:46:27;11.10;99.90
54168;DHT22;68429;50.958;3.592;2024-03-02T13:48:53;11.20;99.90
54168;DHT22;68429;50.958;3.592;2024-03-02T13:51:19;11.20;99.90
54168;DHT22;68429;50.958;3.592;2024-03-02T13:53:44;11.30;99.90
54168;DHT22;68429;50.958;3.592;2024-03-02T13:56:10;11.30;99.90
54168;DHT22;68429;50.958;3.592;2024-03-02T13:58:36;11.30;99.90
54168;DHT22;68429;50.958;3.592;2024-03-02T14:01:01;11.30;99.90
54168;DHT22;68429;50.958;3.592;2024-03-02T14:03:30;11.40;99.90
54168;DHT22;68429;50.958;3.592;2024-03-02T14:05:55;11.40;99.90
54168;DHT22;68429;50.958;3.592;2024-03-02T14:08:21;11.20;99.90
54168;DHT22;68429;50.958;3.592;2024-03-02T14:10:47;11.20;99.90
54168;DHT22;68429;50.958;3.592;2024-03-02T14:13:13;11.10;99.90
54168;DHT22;68429;50.958;3.592;2024-03-02T14:15:38;11.20;99.90
54168;DHT22;68429;50.958;3.592;2024-03-02T14:18:06;11.10;99.90
54168;DHT22;68429;50.958;3.592;2024-03-02T14:20:31;11.00;99.90
54168;DHT22;68429;50.958;3.592;2024-03-02T14:22:58;11.00;99.90
54168;DHT22;68429;50.958;3.592;2024-03-02T14:25:25;11.00;99.90
54168;DHT22;68429;50.958;3.592;2024-03-02T14:27:51;11.00;99.90
54168;DHT22;68429;50.958;3.592;2024-03-02T14:30:17;10.90;99.90
54168;DHT22;68429;50.958;3.592;2024-03-02T14:32:42;10.80;99.90
54168;DHT22;68429;50.958;3.592;2024-03-02T14:35:08;10.60;99.90
54168;DHT22;68429;50.958;3.592;2024-03-02T14:37:37;10.50;99.90
54168;DHT22;68429;50.958;3.592;2024-03-02T14:40:03;10.50;99.90
54168;DHT22;68429;50.958;3.592;2024-03-02T14:42:32;10.30;99.90
54168;DHT22;68429;50.958;3.592;2024-03-02T14:44:58;10.40;99.90
54168;DHT22;68429;50.958;3.592;2024-03-02T14:47:23;10.40;99.90
54168;DHT22;68429;50.958;3.592;2024-03-02T14:49:50;10.40;99.90
54168;DHT22;68429;50.958;3.592;2024-03-02T14:52:16;10.40;99.90
54168;DHT22;68429;50.958;3.592;2024-03-02T14:54:44;10.40;99.90
54168;DHT22;68429;50.958;3.592;2024-03-02T14:57:09;10.50;99.90
54168;DHT22;68429;50.958;3.592;2024-03-02T14:59:36;10.60;99.90
54168;DHT22;68429;50.958;3.592;2024-03-02T15:02:03;10.70;99.90
54168;DHT22;68429;50.958;3.592;2024-03-02T15:04:28;10.70;99.90
54168;DHT22;68429;50.958;3.592;2024-03-02T15:06:54;10.70;99.90
54168;DHT22;68429;50.958;3.592;2024-03-02T15:09:20;10.70;99.90
54168;DHT22;68429;50.958;3.592;2024-03-02T15:11:45;10.60;99.90
54168;DHT22;68429;50.958;3.592;2024-03-02T15:14:11;10.60;99.90
54168;DHT22;68429;50.958;3.592;2024-03-02T15:16:37;10.70;99.90
54168;DHT22;68429;50.958;3.592;2024-03-02T15:19:03;10.40;99.90
54168;DHT22;68429;50.958;3.592;2024-03-02T15:21:28;10.50;99.90
54168;DHT22;68429;50.958;3.592;2024-03-02T15:23:54;10.60;99.90
54168;DHT22;68429;50.958;3.592;2024-03-02T15:26:20;10.80;99.90
54168;DHT22;68429;50.958;3.592;2024-03-02T15:28:49;10.80;99.90
54168;DHT22;68429;50.958;3.592;2024-03-02T15:31:14;10.90;99.90
54168;DHT22;68429;50.958;3.592;2024-03-02T15:33:40;10.90;99.90
54168;DHT22;68429;50.958;3.592;2024-03-02T15:36:06;10.70;99.90
54168;DHT22;68429;50.958;3.592;2024-03-02T15:38:32;10.80;99.90
54168;DHT22;68429;50.958;3.592;2024-03-02T15:40:58;10.90;99.90
54168;DHT22;68429;50.958;3.592;2024-03-02T15:43:24;11.00;99.90
54168;DHT22;68429;50.958;3.592;2024-03-02T15:45:49;11.20;99.90
54168;DHT22;68429;50.958;3.592;2024-03-02T15:48:15;11.10;99.90
54168;DHT22;68429;50.958;3.592;2024-03-02T15:50:41;11.10;99.90
54168;DHT22;68429;50.958;3.592;2024-03-02T15:53:06;11.00;99.90
54168;DHT22;68429;50.958;3.592;2024-03-02T15:55:32;11.10;99.90
54168;DHT22;68429;50.958;3.592;2024-03-02T15:58:01;11.10;99.90
54168;DHT22;68429;50.958;3.592;2024-03-02T16:00:29;11.10;99.90